Accueil
METAR-TAF:

METAR-TAF

Aéroports :

Aéroport de Metz-Nancy-Lorraine

Metz-Nancy-Lorraine, France

latitude: 48-59N, longitude: 006-15E, altitude: 264 m

Observation

Le bulletin a été fait il y a 18 minutes, à 16:00 UTC
Vent 8 kt de sud
Température 18°C
Humidité 73%
Pression 1020 hPa
Visibilité 10 km ou plus
pas de nuages en-dessous de 1500 mètres et pas de cumulonimbus.

METAR: LFJL 191600Z AUTO 18008KT CAVOK 18/13 Q1020 NOSIG

Heure: 18:18 (16:18 UTC)

Prévision

Le bulletin a été fait il y a 5 heures et 18 minutes, à 11:00 UTC
Prévision valable du 19 à 12 UTC au 20 à 12 UTC
Vent 10 kt de sud/sud-ouest
Visibilité 10 km ou plus
pas de nuages en-dessous de 1500 mètres et pas de cumulonimbus.
Evoluant progressivement
du 20 à 06 UTC au 20 à 09 UTC
Vent 15 kt de sud/sud-ouest avec des rafales jusqu'à 25 kt

TAF: LFJL 191100Z 1912/2012 21010KT CAVOK BECMG 2006/2009 21015G25KT

Observations et prévisions météorologiques de plus de 4000 aéroports (messages METAR et TAF).

Les stations disponibles sont représentées par des disques jaunes et rouges sur la carte.

Passer la souris dessus pour voir le nom de la station.

Cliquer dessus pour voir les observations et prévisions météorologiques.

Pour changer de carte: cliquez sur les boutons verts avec une croix noire pour zoomer, sur le bouton vert avec un tiret pour effectuer un zoom arrière, ou sur les flèches vertes pour les cartes adjacentes.


METAR-TAF: